Eglin AFB, FL

7:02 AM CST on February 21, 2017 (GMT -0600)
Eglin Air Force Base | | Change Station

Elev 85 ft 30.48 °N, 86.53 °W | Updated 5 minutes ago

Overcast
Overcast
66 °F
Feels Like 66 °F
N
17
Wind Variable Wind from ESE
Gusts 24 mph

Today
High -- | Low -- °F
--% Chance of Precip.
Yesterday
High -- | Low -- °F
Precip. -- in
Pressure 30.01 in
Visibility 10.0 miles
Clouds Mostly Cloudy 500 ft
Mostly Cloudy 1700 ft
Mostly Cloudy 2400 ft
Overcast 3000 ft
Dew Point 66 °F
Humidity 97%
Rainfall 0.47 in
Snow Depth Not available.
6:20 AM 5:39 PM
Waning Crescent, 25% visible
METAR KVPS 211257Z 12015G21KT 10SM BKN005 BKN017 BKN024 OVC030 19/19 A2999 RMK AO2A SLP162 P0006 T01910186 $
Pressure 30.01 in
Visibility 10.0 miles
Clouds Mostly Cloudy 500 ft
Mostly Cloudy 1700 ft
Mostly Cloudy 2400 ft
Overcast 3000 ft
Dew Point 66 °F
Humidity 97%
Rainfall 0.47 in
Snow Depth Not available.
6:20 AM 5:39 PM
Waning Crescent, 25% visible
METAR KVPS 211257Z 12015G21KT 10SM BKN005 BKN017 BKN024 OVC030 19/19 A2999 RMK AO2A SLP162 P0006 T01910186 $

Get Your Daily Forecast Email!

Thanks for signing up!

Be on the lookout for a verification email in your inbox.

You'll start receiving the daily forecast at 8 AM.

×

10-Day Weather Forecast

Almanac

Astronomy

Feb. 21, 2017 Rise Set
Actual Time
Civil Twilight
Nautical Twilight
Astronomical Twilight
Moon
Length of Visible Light
Length of Day
Tomorrow will be .
, % of the Moon is Illuminated

Today's Extremes

State Highs State Lows

Community

WunderPhotos

Upload Photos

1,962,540 photos uploaded!

WunderBlog® & News

Nearby

Air Quality

  Air Quality AQ Index Pollutant
Not available.

Snow Depth

Station Depth Elevation

Earthquake Activity

City Distance Mag. Time & Date
Minimum magnitude displayed is 2.5.

Coastal Water Temperatures

Place Temperature

Stations

Nearby Weather Stations

Station Location Temp. Windchill Dew Point Humidity Wind Precip. Elev Updated Type
                   

Watches & Warnings

There are currently no watches in effect.